Time;durP1;ratioP1;P1;durP2;ratioP2;P2;SDS_P1;SDS_P2;PMS_P1;PMS_P2;Temp;Humidity;BMP_temperature;BMP_pressure;BME280_temperature;BME280_humidity;BME280_pressure;Samples;Min_cycle;Max_cycle;Signal;HPM_P1;HPM_P2
2023/10/09 00:01:26;;;;;;;2.33;1.80;;;;;;;13.09;100.00;101975.59;5013194;28;20379;-79
2023/10/09 00:03:55;;;;;;;2.90;2.17;;;;;;;13.09;100.00;101968.63;5013138;28;20390;-79
2023/10/09 00:06:30;;;;;;;4.68;2.80;;;;;;;13.07;100.00;101967.75;5011955;28;20036;-79
2023/10/09 00:08:58;;;;;;;4.90;2.75;;;;;;;13.06;100.00;101954.75;5013410;28;20054;-79
2023/10/09 00:11:29;;;;;;;6.38;3.30;;;;;;;13.05;100.00;101953.91;5013052;28;20034;-79
2023/10/09 00:13:57;;;;;;;5.45;3.22;;;;;;;13.05;100.00;101942.59;5012823;28;20033;-78
2023/10/09 00:16:34;;;;;;;4.57;2.90;;;;;;;13.06;100.00;101932.16;5013178;28;20030;-79
2023/10/09 00:19:20;;;;;;;9.27;4.20;;;;;;;13.12;100.00;101957.28;5013344;28;20084;-79
2023/10/09 00:21:47;;;;;;;7.72;4.05;;;;;;;13.15;100.00;101961.63;5012928;28;20446;-78
2023/10/09 00:24:13;;;;;;;7.13;3.80;;;;;;;13.16;100.00;101959.00;5012917;28;20021;-79
2023/10/09 00:26:45;;;;;;;5.50;3.30;;;;;;;13.18;100.00;101949.44;5012354;28;20033;-79
2023/10/09 00:29:23;;;;;;;5.03;3.17;;;;;;;13.19;100.00;101932.91;5012412;28;20060;-79
2023/10/09 00:32:03;;;;;;;5.20;2.90;;;;;;;13.22;100.00;101930.28;5012842;28;20022;-79
2023/10/09 00:34:29;;;;;;;7.03;3.60;;;;;;;13.25;100.00;101935.47;5011973;28;20082;-79
2023/10/09 00:36:55;;;;;;;4.87;3.13;;;;;;;13.26;100.00;101923.31;5012657;28;20385;-79
2023/10/09 00:39:41;;;;;;;5.68;3.60;;;;;;;13.32;100.00;101925.84;5012613;28;20466;-79
2023/10/09 00:42:14;;;;;;;5.32;3.05;;;;;;;13.35;100.00;101925.81;5011708;28;20068;-79
2023/10/09 00:44:41;;;;;;;6.38;3.45;;;;;;;13.37;100.00;101921.47;5012580;28;20025;-79
2023/10/09 00:47:20;;;;;;;5.63;3.28;;;;;;;13.39;100.00;101929.25;5016288;28;20057;-79
2023/10/09 00:50:00;;;;;;;6.72;3.63;;;;;;;13.42;100.00;101924.91;5016048;28;20473;-79
2023/10/09 00:52:32;;;;;;;4.85;3.08;;;;;;;13.46;100.00;101930.94;5016603;28;20026;-79
2023/10/09 00:55:20;;;;;;;5.82;3.13;;;;;;;13.49;100.00;101930.06;5015829;28;20022;-79
2023/10/09 00:58:35;;;;;;;6.38;3.50;;;;;;;13.54;100.00;101933.47;5016663;28;20486;-79
2023/10/09 01:00:32;;;;;;;4.55;2.80;;;;;;;13.56;100.00;101934.34;5005731;28;20034;-79
2023/10/09 01:03:11;;;;;;;5.60;2.80;;;;;;;13.58;100.00;101932.59;5015682;28;20102;-79
2023/10/09 01:05:38;;;;;;;4.05;2.80;;;;;;;13.62;100.00;101929.06;5016453;28;20026;-79
2023/10/09 01:08:16;;;;;;;4.38;2.63;;;;;;;13.62;100.00;101929.06;5016270;28;20522;-79
2023/10/09 01:10:52;;;;;;;5.40;3.30;;;;;;;13.63;100.00;101922.09;5016097;28;20034;-79
2023/10/09 01:13:20;;;;;;;4.72;3.10;;;;;;;13.67;100.00;101924.66;5016135;28;20026;-79
2023/10/09 01:15:52;;;;;;;4.68;2.85;;;;;;;13.69;100.00;101929.84;5015739;28;20042;-79
2023/10/09 01:18:20;;;;;;;3.70;2.65;;;;;;;13.70;100.00;101928.97;5016251;28;20109;-79
2023/10/09 01:20:46;;;;;;;5.97;3.35;;;;;;;13.73;100.00;101928.94;5016346;28;20061;-79
2023/10/09 01:23:12;;;;;;;6.73;3.20;;;;;;;13.78;100.00;101926.28;5015281;28;20022;-79
2023/10/09 01:25:49;;;;;;;6.03;3.50;;;;;;;13.78;100.00;101919.34;5015799;28;20355;-79
2023/10/09 01:28:15;;;;;;;5.97;3.30;;;;;;;13.79;100.00;101928.00;5015974;28;20053;-79
2023/10/09 01:30:45;;;;;;;4.88;3.00;;;;;;;13.78;100.00;101929.78;5015249;28;20025;-79
2023/10/09 01:33:27;;;;;;;4.57;3.10;;;;;;;13.79;100.00;101941.06;5015929;28;20034;-79
2023/10/09 01:35:58;;;;;;;5.03;3.00;;;;;;;13.79;100.00;101938.44;5015809;28;20053;-79
2023/10/09 01:38:40;;;;;;;4.68;2.85;;;;;;;13.76;100.00;101939.34;5021818;23;20022;-79
2023/10/09 01:41:15;;;;;;;3.42;2.60;;;;;;;13.78;100.00;101926.28;5015584;28;20084;-79
2023/10/09 01:43:44;;;;;;;7.82;4.00;;;;;;;13.82;100.00;101933.19;5016123;28;20030;-79
2023/10/09 01:46:11;;;;;;;5.25;3.20;;;;;;;13.83;100.00;101924.50;5015589;28;20022;-79
2023/10/09 01:48:39;;;;;;;4.22;2.70;;;;;;;13.85;100.00;101927.94;5015774;28;20494;-79
2023/10/09 01:51:05;;;;;;;4.63;2.72;;;;;;;13.82;100.00;101921.00;5014914;28;20145;-79
2023/10/09 01:53:30;;;;;;;5.03;3.20;;;;;;;13.83;100.00;101925.34;5015827;28;20097;-79
2023/10/09 01:55:59;;;;;;;4.47;3.00;;;;;;;13.85;100.00;101934.03;5015322;28;20055;-79
2023/10/09 01:58:27;;;;;;;3.70;2.65;;;;;;;13.85;100.00;101931.41;5014673;28;20101;-79
2023/10/09 02:00:56;;;;;;;3.97;2.45;;;;;;;13.85;100.00;101928.81;5015623;28;20079;-79
2023/10/09 02:03:26;;;;;;;5.28;2.97;;;;;;;13.83;100.00;101916.66;5015557;28;20030;-79
2023/10/09 02:05:59;;;;;;;3.35;2.55;;;;;;;13.85;100.00;101920.09;5014600;28;20387;-79
2023/10/09 02:08:27;;;;;;;4.38;2.50;;;;;;;13.78;100.00;101914.13;5014910;28;20179;-79
2023/10/09 02:10:55;;;;;;;2.92;2.30;;;;;;;13.83;100.00;101919.28;5015504;28;20025;-80
2023/10/09 02:13:41;;;;;;;4.03;2.60;;;;;;;13.84;100.00;101926.22;5014744;28;20077;-79
2023/10/09 02:16:26;;;;;;;4.72;2.60;;;;;;;13.82;100.00;101918.41;5015156;28;20022;-79
2023/10/09 02:18:58;;;;;;;4.47;2.92;;;;;;;13.82;100.00;101921.00;5016084;28;20097;-79
2023/10/09 02:21:33;;;;;;;3.20;2.33;;;;;;;13.83;100.00;101916.66;5015008;28;20045;-79
2023/10/09 02:24:07;;;;;;;3.53;2.38;;;;;;;13.84;100.00;101914.03;5015228;28;20022;-79
2023/10/09 02:27:06;;;;;;;3.42;2.20;;;;;;;13.84;100.00;101911.41;5014404;28;20037;-79
2023/10/09 02:29:18;;;;;;;2.60;2.20;;;;;;;13.84;100.00;101910.56;5014687;28;20041;-79
2023/10/09 02:31:44;;;;;;;2.60;2.20;;;;;;;13.81;100.00;101902.78;5014531;28;20132;-79
2023/10/09 02:34:12;;;;;;;2.45;1.90;;;;;;;13.85;100.00;101904.44;5013242;28;20038;-79
2023/10/09 02:36:42;;;;;;;2.97;2.10;;;;;;;13.84;100.00;101898.38;5014810;28;20472;-79
2023/10/09 02:39:43;;;;;;;3.38;2.50;;;;;;;13.84;100.00;101897.53;5014381;28;20046;-79
2023/10/09 02:42:19;;;;;;;3.80;2.50;;;;;;;13.85;100.00;101887.06;5013504;28;20117;-79
2023/10/09 02:44:49;;;;;;;2.83;2.40;;;;;;;13.86;100.00;101886.19;5014732;28;20410;-79
2023/10/09 02:47:20;;;;;;;4.38;2.60;;;;;;;13.87;100.00;101887.03;5013477;28;20494;-79
2023/10/09 02:49:48;;;;;;;4.32;2.63;;;;;;;13.88;100.00;101870.50;5014783;28;20371;-79
2023/10/09 02:52:19;;;;;;;3.65;2.40;;;;;;;13.88;100.00;101875.72;5005293;28;20041;-79
2023/10/09 02:54:47;;;;;;;3.05;2.45;;;;;;;13.88;100.00;101883.53;4994999;28;20116;-79
2023/10/09 02:57:22;;;;;;;2.67;2.13;;;;;;;13.88;100.00;101884.41;5008559;28;20026;-79
2023/10/09 02:59:51;;;;;;;3.13;2.38;;;;;;;13.86;100.00;101880.06;5014832;28;20437;-79
2023/10/09 03:02:17;;;;;;;2.78;2.17;;;;;;;13.85;100.00;101880.94;5013355;28;20049;-79
2023/10/09 03:04:43;;;;;;;3.25;2.17;;;;;;;13.79;100.00;101875.81;5014725;28;20462;-79
2023/10/09 03:07:10;;;;;;;4.67;2.80;;;;;;;13.87;100.00;101880.06;5014470;28;20478;-79
2023/10/09 03:09:35;;;;;;;4.93;3.00;;;;;;;13.87;100.00;101880.06;5013066;28;20513;-79
2023/10/09 03:12:03;;;;;;;4.40;3.03;;;;;;;13.88;100.00;101880.94;5014348;28;20026;-79
2023/10/09 03:14:35;;;;;;;4.20;2.70;;;;;;;13.85;100.00;101878.34;5014084;28;20032;-79
2023/10/09 03:17:01;;;;;;;8.82;3.75;;;;;;;13.87;100.00;101879.19;5013521;28;20025;-79
2023/10/09 03:19:37;;;;;;;8.15;4.28;;;;;;;13.89;100.00;101869.59;5013646;28;20057;-79
2023/10/09 03:22:03;;;;;;;5.60;3.50;;;;;;;13.90;100.00;101863.50;5013719;28;20444;-79
2023/10/09 03:24:32;;;;;;;6.57;3.67;;;;;;;13.90;100.00;101855.69;5019929;23;20054;-79
2023/10/09 03:26:57;;;;;;;5.50;3.30;;;;;;;13.91;100.00;101854.81;5013756;28;20525;-79
2023/10/09 03:29:24;;;;;;;5.27;3.40;;;;;;;13.92;100.00;101860.88;5012962;28;20114;-79
2023/10/09 03:31:51;;;;;;;4.72;3.03;;;;;;;13.90;100.00;101855.69;5013768;28;20021;-79
2023/10/09 03:34:18;;;;;;;4.65;3.10;;;;;;;13.87;100.00;101853.09;5013656;28;20029;-79
2023/10/09 03:36:43;;;;;;;6.15;3.40;;;;;;;13.92;100.00;101858.25;5013086;28;20049;-79
2023/10/09 03:39:24;;;;;;;6.30;3.50;;;;;;;13.88;100.00;101845.28;5013504;28;20050;-80
2023/10/09 03:41:51;;;;;;;6.00;3.40;;;;;;;13.89;100.00;101847.00;5013627;28;20478;-80
2023/10/09 03:44:18;;;;;;;4.97;3.08;;;;;;;13.89;100.00;101833.97;5012775;28;20417;-80
2023/10/09 03:46:44;;;;;;;5.10;3.10;;;;;;;13.87;100.00;101827.88;5013609;28;20038;-80
2023/10/09 03:49:12;;;;;;;5.38;3.17;;;;;;;13.86;100.00;101827.88;5013351;28;20033;-80
2023/10/09 03:51:37;;;;;;;9.57;4.25;;;;;;;13.86;100.00;101851.38;5012904;28;20454;-80
2023/10/09 03:54:07;;;;;;;7.27;3.90;;;;;;;13.85;100.00;101847.03;5013129;28;20053;-80
2023/10/09 03:56:33;;;;;;;7.95;4.20;;;;;;;13.84;100.00;101848.78;5013341;28;20087;-80
2023/10/09 03:59:05;;;;;;;8.37;4.00;;;;;;;13.86;100.00;101848.75;5013017;28;20061;-80
2023/10/09 04:01:40;;;;;;;8.40;4.15;;;;;;;13.87;100.00;101850.50;5013532;28;20049;-79
2023/10/09 04:04:10;;;;;;;7.60;3.70;;;;;;;13.86;100.00;101843.53;5013221;28;20030;-81
2023/10/09 04:06:38;;;;;;;7.15;3.85;;;;;;;13.87;100.00;101847.88;5012726;28;20026;-78
2023/10/09 04:11:46;;;;;;;5.03;3.00;;;;;;;13.86;100.00;101847.03;5012917;28;20117;-79
2023/10/09 04:14:35;;;;;;;4.73;2.60;;;;;;;13.85;100.00;101842.69;5012723;28;20499;-79
2023/10/09 04:17:33;;;;;;;3.40;2.40;;;;;;;13.84;100.00;101838.34;5012590;28;20034;-79
2023/10/09 04:22:51;;;;;;;6.18;3.35;;;;;;;13.79;100.00;101818.44;5013110;28;20402;-78
2023/10/09 04:28:51;;;;;;;4.90;2.95;;;;;;;13.79;100.00;101829.72;5013185;28;20107;-78
2023/10/09 04:31:55;;;;;;;5.15;3.40;;;;;;;13.78;100.00;101834.97;5012809;28;20036;-78
2023/10/09 04:34:48;;;;;;;6.20;3.35;;;;;;;13.77;100.00;101828.91;5050309;23;20049;-78
2023/10/09 04:40:10;;;;;;;4.85;2.90;;;;;;;13.70;100.00;101840.28;5012541;28;20060;-78
2023/10/09 04:42:36;;;;;;;4.07;2.60;;;;;;;13.80;100.00;101862.75;5013287;28;20030;-78
2023/10/09 04:46:06;;;;;;;3.93;2.63;;;;;;;13.81;100.00;101869.69;5022532;28;20029;-78
2023/10/09 04:48:09;;;;;;;3.10;2.40;;;;;;;13.82;100.00;101860.16;5031433;28;20029;-80
2023/10/09 04:55:44;;;;;;;7.07;3.88;;;;;;;13.81;100.00;101863.63;5032126;28;20124;-79
2023/10/09 04:58:23;;;;;;;5.75;3.55;;;;;;;13.82;100.00;101866.22;5032215;28;20037;-79
2023/10/09 05:01:04;;;;;;;5.00;3.10;;;;;;;13.82;100.00;101860.16;5031479;28;20026;-79
2023/10/09 05:03:42;;;;;;;4.82;3.00;;;;;;;13.85;100.00;101866.19;5031686;28;20033;-80
2023/10/09 05:06:21;;;;;;;4.63;2.90;;;;;;;13.83;100.00;101865.34;4992820;28;20110;-79
2023/10/09 05:08:48;;;;;;;3.08;2.45;;;;;;;13.88;100.00;101875.72;4992154;28;20022;-79
2023/10/09 05:14:11;;;;;;;3.40;2.20;;;;;;;13.92;100.00;101873.91;4995682;28;20069;-79
2023/10/09 05:16:37;;;;;;;4.00;2.75;;;;;;;13.93;100.00;101866.09;5012024;28;20026;-79
2023/10/09 05:19:06;;;;;;;5.07;2.97;;;;;;;13.96;100.00;101854.75;5012183;28;20076;-80
2023/10/09 05:21:44;;;;;;;3.13;2.40;;;;;;;13.95;100.00;101855.63;5012622;28;20033;-80
2023/10/09 05:37:32;;;;;;;;;;;;;;;13.98;100.00;101889.50;5015558;28;20180;-80
2023/10/09 05:42:42;;;;;;;4.40;2.72;;;;;;;13.98;100.00;101890.38;5015849;28;20084;-80
2023/10/09 05:48:06;;;;;;;4.30;2.83;;;;;;;14.00;100.00;101891.22;5035999;28;20501;-80
2023/10/09 05:57:32;;;;;;;8.05;4.20;;;;;;;14.01;100.00;101890.34;5035769;28;20079;-79
2023/10/09 06:04:18;;;;;;;5.97;3.30;;;;;;;14.04;100.00;101929.44;5014844;28;20041;-80
2023/10/09 06:06:45;;;;;;;6.32;3.65;;;;;;;14.04;100.00;101926.84;5015668;28;20192;-80
2023/10/09 06:14:49;;;;;;;4.85;3.00;;;;;;;14.09;100.00;101931.13;5030648;28;20041;-79
2023/10/09 06:19:48;;;;;;;8.23;4.60;;;;;;;14.09;100.00;101916.34;5034353;28;20034;-80
2023/10/09 06:25:09;;;;;;;6.50;3.60;;;;;;;14.11;100.00;101909.34;5035831;28;20087;-80
2023/10/09 06:32:40;;;;;;;6.63;3.78;;;;;;;14.14;100.00;101924.97;5034069;28;20033;-80
2023/10/09 06:38:33;;;;;;;5.80;3.53;;;;;;;14.16;100.00;101914.50;5034804;28;20156;-80
2023/10/09 06:58:59;;;;;;;9.20;4.85;;;;;;;14.29;100.00;101899.53;4975938;28;20038;-79
2023/10/09 07:01:39;;;;;;;8.65;4.50;;;;;;;14.27;100.00;101886.53;4974829;28;20479;-79
2023/10/09 07:06:50;;;;;;;9.23;4.68;;;;;;;14.33;100.00;101877.72;4975929;28;20041;-80
2023/10/09 07:09:19;;;;;;;7.47;4.03;;;;;;;14.38;100.00;101882.88;4974522;28;20105;-82
2023/10/09 07:17:00;;;;;;;12.50;5.93;;;;;;;14.47;100.00;101848.78;4975627;28;20097;-81
2023/10/09 07:22:03;;;;;;;13.32;6.30;;;;;;;14.52;100.00;101854.81;4974278;28;20039;-82
2023/10/09 07:24:43;;;;;;;9.95;5.22;;;;;;;14.60;100.00;101865.13;4975484;28;20046;-81
2023/10/09 07:27:14;;;;;;;10.15;5.28;;;;;;;14.63;100.00;101880.75;4975205;28;20038;-82
2023/10/09 07:29:48;;;;;;;14.70;6.78;;;;;;;14.64;100.00;101906.84;4974286;28;20259;-82
2023/10/09 07:32:20;;;;;;;13.38;6.28;;;;;;;14.65;100.00;101923.41;4974787;28;20109;-82
2023/10/09 07:34:58;;;;;;;11.60;5.20;;;;;;;14.67;100.00;101924.28;4975082;28;20031;-82
2023/10/09 07:37:30;;;;;;;7.45;4.28;;;;;;;14.67;100.00;101932.97;4973633;28;20464;-82
2023/10/09 07:39:59;;;;;;;7.88;3.95;;;;;;;14.66;100.00;101939.03;4975015;28;20106;-82
2023/10/09 07:48:05;;;;;;;4.32;2.78;;;;;;;14.71;100.00;101943.38;4974644;28;20035;-81
2023/10/09 07:50:40;;;;;;;4.10;2.83;;;;;;;14.72;100.00;101945.13;4974158;28;20031;-81
2023/10/09 07:53:25;;;;;;;9.98;4.55;;;;;;;14.72;100.00;101937.28;4974320;28;20023;-81
2023/10/09 07:55:55;;;;;;;9.10;4.53;;;;;;;14.72;100.00;101932.91;4974401;28;20498;-81
2023/10/09 07:58:28;;;;;;;7.50;4.13;;;;;;;14.73;100.00;101915.50;4973468;28;20027;-81
2023/10/09 08:01:22;;;;;;;5.85;3.30;;;;;;;14.74;100.00;101912.00;4974437;28;20102;-81
2023/10/09 08:03:46;;;;;;;4.82;3.17;;;;;;;14.76;100.00;101902.34;4973519;28;20033;-81
2023/10/09 08:19:56;;;;;;;7.43;4.00;;;;;;;14.90;100.00;101936.13;4992885;28;20242;-80
2023/10/09 08:24:58;;;;;;;5.03;3.10;;;;;;;15.01;100.00;101920.25;4992704;28;20035;-80
2023/10/09 08:33:03;;;;;;;6.63;3.67;;;;;;;15.21;100.00;101897.22;4992999;28;20057;-80
2023/10/09 08:35:29;;;;;;;7.65;4.25;;;;;;;15.26;100.00;101892.81;4993655;28;20399;-81
2023/10/09 08:38:03;;;;;;;13.85;6.60;;;;;;;15.35;100.00;101896.13;4993187;28;20033;-81
2023/10/09 08:40:33;;;;;;;14.95;7.43;;;;;;;15.40;100.00;101884.69;4973642;28;20097;-81
2023/10/09 08:43:08;;;;;;;12.68;6.13;;;;;;;15.51;100.00;101889.72;4984666;28;20353;-81
2023/10/09 08:45:39;;;;;;;13.83;7.10;;;;;;;15.65;100.00;101896.47;4973994;28;20093;-81
2023/10/09 08:48:08;;;;;;;15.93;7.85;;;;;;;15.70;100.00;101891.97;4990868;28;20080;-81
2023/10/09 08:50:36;;;;;;;17.35;8.63;;;;;;;15.74;100.00;101899.72;4993518;28;20034;-83
2023/10/09 08:53:03;;;;;;;16.98;8.90;;;;;;;15.80;100.00;101890.03;4992705;28;20468;-83
2023/10/09 08:55:28;;;;;;;19.63;9.68;;;;;;;15.78;100.00;101884.81;4992604;28;20061;-82
2023/10/09 08:57:58;;;;;;;16.17;7.60;;;;;;;15.90;100.00;101895.06;4993260;28;20030;-83
2023/10/09 09:00:35;;;;;;;16.80;8.25;;;;;;;16.02;100.00;101899.22;4992081;28;20782;-84
2023/10/09 09:03:00;;;;;;;17.65;8.82;;;;;;;16.02;100.00;101882.63;4993488;28;20026;-85
2023/10/09 09:05:29;;;;;;;13.20;6.90;;;;;;;16.20;100.00;101902.31;4992920;28;20497;-84
2023/10/09 09:07:59;;;;;;;14.70;6.93;;;;;;;16.31;100.00;101920.41;4995671;28;20045;-82
2023/10/09 09:10:35;;;;;;;16.65;7.68;;;;;;;16.41;100.00;101935.03;4996609;28;20030;-81
2023/10/09 09:13:03;;;;;;;14.13;6.57;;;;;;;16.47;100.00;101945.38;4997130;28;20035;-82
2023/10/09 09:15:30;;;;;;;11.63;5.97;;;;;;;16.52;100.00;101943.50;4996266;28;20368;-82
2023/10/09 09:18:11;;;;;;;8.90;4.95;;;;;;;16.65;100.00;101951.94;4997060;28;20030;-80
2023/10/09 09:20:40;;;;;;;10.77;4.93;;;;;;;16.76;100.00;101951.72;4997160;28;20030;-80
2023/10/09 09:23:12;;;;;;;6.65;3.80;;;;;;;16.88;100.00;101952.31;4995998;28;20406;-81
2023/10/09 09:25:48;;;;;;;7.20;4.22;;;;;;;16.97;100.00;101955.59;4996703;28;20022;-80
2023/10/09 09:28:19;;;;;;;8.20;4.50;;;;;;;17.04;100.00;101953.69;4995682;28;20029;-81
2023/10/09 09:30:50;;;;;;;9.63;4.78;;;;;;;17.12;100.00;101958.75;4996600;28;20030;-81
2023/10/09 09:33:39;;;;;;;10.05;5.18;;;;;;;17.18;100.00;101961.19;4996043;28;20128;-81
2023/10/09 09:36:06;;;;;;;8.27;4.43;;;;;;;17.18;100.00;101960.34;4995572;28;20084;-81
2023/10/09 09:38:47;;;;;;;10.68;5.40;;;;;;;17.23;100.00;101974.19;4996678;28;20034;-80
2023/10/09 09:41:23;;;;;;;10.30;4.95;;;;;;;17.26;100.00;101969.75;4996629;28;20378;-83
2023/10/09 09:43:52;;;;;;;6.38;3.80;;;;;;;17.32;100.00;101978.34;4996060;28;20049;-83
2023/10/09 09:46:18;;;;;;;5.00;3.20;;;;;;;17.37;100.00;101979.97;4995733;28;20022;-83
2023/10/09 09:48:45;;;;;;;4.28;2.90;;;;;;;17.40;100.00;101977.25;4996658;28;20022;-83
2023/10/09 09:51:14;;;;;;;3.00;2.30;;;;;;;17.46;100.00;101978.88;4995536;28;20019;-83
2023/10/09 09:53:40;;;;;;;2.95;2.30;;;;;;;17.51;100.00;101979.59;4996533;28;20046;-82
2023/10/09 09:56:09;;;;;;;3.35;2.47;;;;;;;17.56;100.00;101976.88;4995778;28;20391;-82
2023/10/09 09:58:44;;;;;;;2.50;2.08;;;;;;;17.57;100.00;101978.56;4996243;28;20025;-83
2023/10/09 10:01:22;;;;;;;3.17;2.55;;;;;;;17.63;100.00;101978.41;4996457;28;20030;-83
2023/10/09 10:03:57;;;;;;;12.50;5.90;;;;;;;17.67;100.00;101982.69;4995371;28;20034;-83
2023/10/09 10:06:26;;;;;;;11.07;5.50;;;;;;;17.72;100.00;101985.19;4995792;28;20030;-83
2023/10/09 10:08:52;;;;;;;7.03;4.20;;;;;;;17.75;100.00;101985.97;4996140;28;20027;-82
2023/10/09 10:11:46;;;;;;;6.28;3.38;;;;;;;17.86;100.00;101990.06;4994756;28;20025;-82
2023/10/09 10:14:31;;;;;;;5.25;3.20;;;;;;;17.91;100.00;101975.91;4995755;28;20026;-81
2023/10/09 10:17:20;;;;;;;4.55;3.00;;;;;;;18.00;100.00;101982.69;4995560;28;20026;-82
2023/10/09 10:20:00;;;;;;;4.90;3.20;;;;;;;18.10;100.00;101982.44;4994988;28;20054;-83
2023/10/09 10:22:37;;;;;;;8.02;4.30;;;;;;;18.14;100.00;101970.91;4995581;28;20041;-83
2023/10/09 10:25:09;;;;;;;;;;;;;;;18.15;100.00;101975.25;4992829;28;20041;-83
2023/10/09 10:27:44;;;;;;;9.10;4.80;;;;;;;18.10;100.00;101978.03;4995712;28;20250;-83
2023/10/09 10:30:23;;;;;;;5.80;3.80;;;;;;;18.14;100.00;101981.41;4995470;28;20026;-82
2023/10/09 10:32:51;;;;;;;12.15;5.78;;;;;;;18.20;100.00;101983.88;4994990;28;20041;-83
2023/10/09 10:35:32;;;;;;;8.68;4.60;;;;;;;18.23;100.00;101978.53;4995456;28;20038;-82
2023/10/09 10:38:11;;;;;;;7.43;4.35;;;;;;;18.29;100.00;101983.59;4995687;28;20058;-83
2023/10/09 10:40:46;;;;;;;6.78;3.97;;;;;;;18.34;100.00;101981.72;4994710;28;20499;-83
2023/10/09 10:43:47;;;;;;;9.13;4.40;;;;;;;18.42;100.00;101967.47;4995324;28;20027;-82
2023/10/09 10:46:15;;;;;;;10.15;5.30;;;;;;;18.48;100.00;101965.53;4994381;28;20042;-82
2023/10/09 10:48:49;;;;;;;7.47;4.15;;;;;;;18.56;100.00;101960.03;4995288;28;20023;-82
2023/10/09 10:51:15;;;;;;;6.40;3.78;;;;;;;18.63;100.00;101968.59;4995049;28;20113;-82
2023/10/09 10:53:59;;;;;;;4.10;2.70;;;;;;;18.72;100.00;101975.31;4994692;28;20108;-83
2023/10/09 10:56:35;;;;;;;10.23;5.00;;;;;;;18.74;98.45;101969.13;4995146;28;20293;-83
2023/10/09 11:12:45;;;;;;;6.03;3.15;;;;;;;18.97;99.92;101980.69;4995096;28;20069;-82
2023/10/09 11:18:45;;;;;;;6.18;3.40;;;;;;;19.02;99.94;101994.53;4994975;28;20092;-82
2023/10/09 11:21:40;;;;;;;7.90;4.13;;;;;;;19.02;99.17;101962.13;5040759;23;20033;-78
2023/10/09 11:23:57;;;;;;;4.68;3.08;;;;;;;19.25;99.87;101974.50;4984497;28;20050;-83
2023/10/09 11:26:40;;;;;;;5.07;3.28;;;;;;;19.34;99.24;101978.59;4993751;28;20061;-84
2023/10/09 11:29:13;;;;;;;4.43;2.90;;;;;;;19.39;98.66;101976.66;4985546;28;20428;-83
2023/10/09 11:31:59;;;;;;;8.25;4.05;;;;;;;19.40;98.50;101978.38;4979507;28;20603;-84
2023/10/09 11:34:35;;;;;;;5.03;3.10;;;;;;;19.43;98.51;101965.97;4974904;28;20105;-83
2023/10/09 11:37:03;;;;;;;6.00;3.40;;;;;;;19.47;98.05;101966.75;4982904;28;20022;-84
2023/10/09 11:39:34;;;;;;;7.55;3.78;;;;;;;19.52;97.04;101967.41;4981042;28;20078;-84
2023/10/09 11:42:14;;;;;;;8.93;4.43;;;;;;;19.57;96.61;101969.88;4981332;28;20049;-84
2023/10/09 11:44:55;;;;;;;7.20;4.05;;;;;;;19.64;94.62;101975.81;4982775;28;20434;-84
2023/10/09 11:52:45;;;;;;;4.30;3.00;;;;;;;19.76;96.17;101964.81;4984405;28;20036;-84
2023/10/09 11:55:14;;;;;;;6.10;3.00;;;;;;;19.80;95.41;101978.75;4982031;28;20023;-84
2023/10/09 11:57:41;;;;;;;4.05;2.90;;;;;;;19.80;95.43;101979.63;4985842;28;20022;-84
2023/10/09 12:02:53;;;;;;;6.80;3.67;;;;;;;19.82;95.68;101969.84;4983261;28;20446;-84
2023/10/09 12:05:20;;;;;;;9.40;3.70;;;;;;;19.83;94.90;101973.38;4981894;28;20022;-84
2023/10/09 12:07:46;;;;;;;5.85;3.35;;;;;;;19.83;95.68;101974.22;4984172;28;20108;-84
2023/10/09 12:10:24;;;;;;;4.80;2.80;;;;;;;19.88;95.96;101977.59;4981595;28;20077;-82
2023/10/09 12:12:49;;;;;;;4.07;2.80;;;;;;;19.94;94.95;101978.25;4984790;28;20022;-82
2023/10/09 12:15:17;;;;;;;2.93;2.40;;;;;;;19.98;95.83;101971.97;4984014;23;20051;-83
2023/10/09 12:17:47;;;;;;;5.03;3.20;;;;;;;19.98;92.97;101975.47;4980950;28;20046;-84
2023/10/09 12:20:50;;;;;;;7.78;3.70;;;;;;;19.97;93.14;101970.25;4971389;28;20110;-84
2023/10/09 12:23:07;;;;;;;4.85;3.10;;;;;;;19.89;93.51;101965.25;4968934;28;20026;-84
2023/10/09 12:25:35;;;;;;;7.07;3.80;;;;;;;19.90;91.91;101967.84;4967730;28;20027;-84
2023/10/09 12:28:02;;;;;;;4.82;3.20;;;;;;;19.89;92.05;101963.50;4969120;28;20066;-84
2023/10/09 12:30:29;;;;;;;6.15;3.25;;;;;;;19.90;93.59;101966.97;4972445;28;20431;-84
2023/10/09 12:32:57;;;;;;;9.88;4.80;;;;;;;19.83;90.24;101965.47;4968466;28;20380;-84
2023/10/09 12:35:24;;;;;;;8.60;4.20;;;;;;;19.80;92.03;101960.31;4971841;28;20897;-83
2023/10/09 12:37:49;;;;;;;7.97;3.45;;;;;;;19.79;93.25;101958.59;4965270;28;20460;-83
2023/10/09 12:40:23;;;;;;;6.47;3.40;;;;;;;19.82;92.38;101956.69;4966509;28;20062;-84
2023/10/09 12:42:48;;;;;;;5.63;3.28;;;;;;;19.86;93.10;101947.81;4966646;28;20023;-84
2023/10/09 12:45:14;;;;;;;6.00;3.03;;;;;;;19.90;91.29;101948.53;4971547;28;20054;-84
2023/10/09 12:47:42;;;;;;;4.37;2.80;;;;;;;19.92;92.42;101943.22;4971919;28;20054;-84
2023/10/09 12:50:13;;;;;;;3.13;2.30;;;;;;;19.94;93.23;101936.09;4964805;28;20111;-84
2023/10/09 12:52:41;;;;;;;2.47;2.28;;;;;;;20.02;93.18;101936.69;4973371;28;20027;-84
2023/10/09 12:55:08;;;;;;;3.03;2.10;;;;;;;20.07;93.15;101934.72;4973734;28;20027;-84
2023/10/09 12:57:34;;;;;;;2.53;2.22;;;;;;;20.12;92.87;101929.28;4973902;28;20026;-84
2023/10/09 12:59:59;;;;;;;3.30;2.23;;;;;;;20.13;93.35;101917.81;4973175;28;20084;-84
2023/10/09 13:02:30;;;;;;;2.73;2.20;;;;;;;20.16;93.19;101909.81;4972300;28;20023;-84
2023/10/09 13:05:03;;;;;;;2.75;2.20;;;;;;;20.25;91.35;101920.00;4962781;28;20024;-84
2023/10/09 13:07:28;;;;;;;3.22;2.50;;;;;;;20.28;91.08;101911.97;4959766;28;20038;-83
2023/10/09 13:10:08;;;;;;;5.20;2.90;;;;;;;20.30;91.03;101911.91;4954178;29;20024;-83
2023/10/09 13:12:44;;;;;;;3.33;2.35;;;;;;;20.31;91.37;101909.22;4954572;28;20473;-84
2023/10/09 13:15:10;;;;;;;3.72;2.40;;;;;;;20.35;92.04;101921.34;4962148;28;21097;-83
2023/10/09 13:17:36;;;;;;;3.08;2.20;;;;;;;20.36;91.91;101914.31;4958269;28;20019;-83
2023/10/09 13:20:12;;;;;;;2.47;1.90;;;;;;;20.37;91.73;101913.41;4956289;28;20093;-83
2023/10/09 13:22:41;;;;;;;2.10;1.90;;;;;;;20.39;91.57;101921.22;4973785;28;20027;-83
2023/10/09 13:25:15;;;;;;;1.83;1.70;;;;;;;20.38;91.91;101925.63;4973336;28;20130;-83
2023/10/09 13:27:41;;;;;;;1.75;1.60;;;;;;;20.37;90.19;101929.22;4972953;28;20061;-84
2023/10/09 13:30:08;;;;;;;2.30;1.95;;;;;;;20.33;87.98;101924.97;4973642;28;20023;-83
2023/10/09 13:32:35;;;;;;;2.92;2.17;;;;;;;20.32;87.92;101941.69;4973380;28;20023;-83
2023/10/09 13:35:03;;;;;;;3.13;2.22;;;;;;;20.29;89.43;101936.53;4972822;28;20034;-83
2023/10/09 13:37:36;;;;;;;2.85;2.30;;;;;;;20.26;88.76;101940.16;4973554;28;20062;-83
2023/10/09 13:40:09;;;;;;;3.08;2.30;;;;;;;20.18;89.86;101924.63;4973452;28;20451;-83
2023/10/09 13:42:35;;;;;;;2.47;2.20;;;;;;;20.18;90.78;101927.28;4972653;28;20031;-82
2023/10/09 13:45:06;;;;;;;2.25;2.00;;;;;;;20.23;90.62;101934.16;4964920;28;20022;-82
2023/10/09 13:47:33;;;;;;;2.80;2.00;;;;;;;20.16;90.32;101931.75;4962689;28;20035;-82
2023/10/09 13:49:59;;;;;;;2.20;2.00;;;;;;;20.19;90.91;101936.91;4964221;28;20435;-83
2023/10/09 13:52:24;;;;;;;1.80;1.70;;;;;;;20.23;91.83;101942.06;4955713;28;20472;-83
2023/10/09 13:54:50;;;;;;;1.60;1.50;;;;;;;20.25;91.05;101937.59;4957522;29;20042;-83
2023/10/09 13:57:16;;;;;;;1.67;1.57;;;;;;;20.29;92.09;101944.44;4956718;29;20042;-83
2023/10/09 13:59:49;;;;;;;2.60;2.03;;;;;;;20.34;91.11;101938.06;4957765;29;20023;-83
2023/10/09 14:02:21;;;;;;;3.72;2.55;;;;;;;20.36;88.28;101936.25;4957308;28;20282;-82
2023/10/09 14:04:51;;;;;;;3.35;2.22;;;;;;;20.37;89.72;101937.97;4957775;28;20020;-82
2023/10/09 14:07:17;;;;;;;1.90;1.70;;;;;;;20.43;91.18;101943.94;4957067;28;20451;-85
2023/10/09 14:12:10;;;;;;;4.55;2.30;;;;;;;20.48;87.51;101944.59;4976040;28;20117;-84
2023/10/09 14:14:49;;;;;;;4.20;2.30;;;;;;;20.46;89.61;101936.75;4976117;28;20031;-85